Time;durP1;ratioP1;P1;durP2;ratioP2;P2;SDS_P1;SDS_P2;PMS_P1;PMS_P2;Temp;Humidity;BMP_temperature;BMP_pressure;BME280_temperature;BME280_humidity;BME280_pressure;Samples;Min_cycle;Max_cycle;Signal;HPM_P1;HPM_P2
2022/08/01 00:02:05;;;;;;;2.40;1.70;;;;;;;;;;5053028;28;20025;-60
2022/08/01 00:04:34;;;;;;;3.00;1.45;;;;;;;;;;5053563;28;20021;-60
2022/08/01 00:07:04;;;;;;;3.22;1.25;;;;;;;;;;5053247;28;20037;-60
2022/08/01 00:09:36;;;;;;;2.30;1.40;;;;;;;;;;5053391;28;20112;-59
2022/08/01 00:12:11;;;;;;;2.60;1.40;;;;;;;;;;5051050;28;20041;-60
2022/08/01 00:14:46;;;;;;;2.75;1.58;;;;;;;;;;5038952;28;20172;-59
2022/08/01 00:17:16;;;;;;;2.45;1.35;;;;;;;;;;5031719;28;20118;-60
2022/08/01 00:19:42;;;;;;;2.20;1.45;;;;;;;;;;5033182;28;20260;-60
2022/08/01 00:22:14;;;;;;;2.00;1.42;;;;;;;;;;5031056;28;20083;-60
2022/08/01 00:24:55;;;;;;;2.08;1.27;;;;;;;;;;5033391;28;20076;-60
2022/08/01 00:27:37;;;;;;;3.45;2.15;;;;;;;;;;5034303;28;20442;-60
2022/08/01 00:30:06;;;;;;;2.33;1.40;;;;;;;;;;5031069;28;20030;-60
2022/08/01 00:32:41;;;;;;;2.20;1.25;;;;;;;;;;5033168;28;20042;-60
2022/08/01 00:35:11;;;;;;;2.90;1.60;;;;;;;;;;5033250;28;20024;-60
2022/08/01 00:38:10;;;;;;;2.50;1.58;;;;;;;;;;5031909;28;20379;-60
2022/08/01 00:40:39;;;;;;;2.13;1.17;;;;;;;;;;5031036;28;20064;-60
2022/08/01 00:43:17;;;;;;;2.97;1.58;;;;;;;;;;5033059;28;20032;-60
2022/08/01 00:45:54;;;;;;;3.08;2.08;;;;;;;;;;5033278;28;20021;-60
2022/08/01 00:48:23;;;;;;;2.50;1.50;;;;;;;;;;5032915;28;20156;-60
2022/08/01 00:51:01;;;;;;;5.22;1.58;;;;;;;;;;5031973;28;20040;-60
2022/08/01 00:53:27;;;;;;;3.13;1.77;;;;;;;;;;5032889;28;20037;-60
2022/08/01 00:56:00;;;;;;;2.15;1.33;;;;;;;;;;5032458;28;20021;-60
2022/08/01 01:01:27;;;;;;;4.18;1.77;;;;;;;;;;5032023;28;20471;-60
2022/08/01 01:07:10;;;;;;;5.03;1.92;;;;;;;;;;5032969;28;20037;-59
2022/08/01 01:10:01;;;;;;;2.95;1.98;;;;;;;;;;5031047;28;20029;-59
2022/08/01 01:12:45;;;;;;;6.00;2.05;;;;;;;;;;5037319;28;20569;-60
2022/08/01 01:15:35;;;;;;;;;;;;;;;;;;;;;
2022/08/01 01:18:28;;;;;;;3.15;2.00;;;;;;;;;;5052646;28;20055;-60
2022/08/01 01:21:07;;;;;;;;;;;;;;;;;;;;;
2022/08/01 01:23:55;;;;;;;3.03;2.00;;;;;;;;;;5032533;28;20037;-60
2022/08/01 01:26:47;;;;;;;2.95;2.03;;;;;;;;;;5031079;28;20029;-60
2022/08/01 01:29:42;;;;;;;5.15;1.92;;;;;;;;;;5042412;28;20056;-60
2022/08/01 01:32:49;;;;;;;3.38;2.03;;;;;;;;;;5051272;28;20382;-60
2022/08/01 01:35:37;;;;;;;4.70;1.70;;;;;;;;;;5052236;28;20025;-59
2022/08/01 01:38:36;;;;;;;3.55;1.90;;;;;;;;;;5051414;28;20025;-60
2022/08/01 01:41:41;;;;;;;2.72;2.03;;;;;;;;;;5050879;28;20599;-60
2022/08/01 01:44:40;;;;;;;2.28;1.40;;;;;;;;;;5053093;28;20111;-59
2022/08/01 01:47:16;;;;;;;3.30;1.88;;;;;;;;;;5035559;28;20060;-60
2022/08/01 01:49:47;;;;;;;2.30;1.48;;;;;;;;;;5030748;28;20034;-60
2022/08/01 01:52:16;;;;;;;2.67;2.17;;;;;;;;;;5032274;28;20037;-59
2022/08/01 01:54:48;;;;;;;3.88;1.80;;;;;;;;;;5032657;28;20041;-60
2022/08/01 01:57:36;;;;;;;2.72;2.00;;;;;;;;;;5032393;28;20029;-60
2022/08/01 02:00:08;;;;;;;3.50;1.73;;;;;;;;;;5031652;28;20053;-60
2022/08/01 02:05:41;;;;;;;3.35;1.73;;;;;;;;;;5031504;28;20037;-59
2022/08/01 02:08:32;;;;;;;2.40;1.63;;;;;;;;;;5030365;28;20084;-60
2022/08/01 02:14:15;;;;;;;4.25;1.80;;;;;;;;;;5034227;28;20116;-60
2022/08/01 02:16:47;;;;;;;2.20;1.42;;;;;;;;;;5030217;28;20025;-60
2022/08/01 02:19:17;;;;;;;3.53;2.15;;;;;;;;;;5035631;28;20022;-60
2022/08/01 02:21:46;;;;;;;2.38;1.77;;;;;;;;;;5055490;28;20032;-60
2022/08/01 02:24:18;;;;;;;4.15;1.75;;;;;;;;;;5054576;28;20028;-60
2022/08/01 02:26:49;;;;;;;4.03;2.10;;;;;;;;;;5056010;28;20032;-60
2022/08/01 02:29:40;;;;;;;3.90;2.10;;;;;;;;;;5055732;28;20474;-60
2022/08/01 02:32:06;;;;;;;;;;;;;;;;;;5053852;28;20083;-60
2022/08/01 02:34:48;;;;;;;2.25;1.27;;;;;;;;;;5055710;28;20266;-59
2022/08/01 02:37:23;;;;;;;2.58;1.85;;;;;;;;;;5055344;28;20467;-60
2022/08/01 02:39:55;;;;;;;2.75;1.50;;;;;;;;;;5055182;28;20407;-60
2022/08/01 02:42:37;;;;;;;2.38;1.60;;;;;;;;;;5055343;28;20037;-60
2022/08/01 02:45:13;;;;;;;2.53;1.65;;;;;;;;;;5055667;28;20029;-60
2022/08/01 02:47:56;;;;;;;2.65;1.58;;;;;;;;;;5055132;28;20056;-60
2022/08/01 02:50:33;;;;;;;2.65;1.90;;;;;;;;;;5037389;28;20029;-60
2022/08/01 02:53:23;;;;;;;2.38;1.92;;;;;;;;;;5055900;28;20075;-60
2022/08/01 02:55:53;;;;;;;3.58;2.35;;;;;;;;;;5055918;28;20033;-60
2022/08/01 02:58:31;;;;;;;3.55;1.88;;;;;;;;;;5055634;28;20367;-60
2022/08/01 03:01:06;;;;;;;3.10;2.13;;;;;;;;;;5055383;28;20436;-60
2022/08/01 03:03:38;;;;;;;3.35;2.00;;;;;;;;;;5055373;28;20116;-60
2022/08/01 03:06:07;;;;;;;3.17;1.98;;;;;;;;;;5055297;28;20033;-60
2022/08/01 03:08:52;;;;;;;2.92;2.03;;;;;;;;;;5037534;28;20036;-59
2022/08/01 03:14:26;;;;;;;2.78;2.00;;;;;;;;;;5050508;28;20021;-60
2022/08/01 03:17:06;;;;;;;2.20;1.40;;;;;;;;;;5055527;28;20101;-60
2022/08/01 03:19:33;;;;;;;3.67;2.07;;;;;;;;;;5046893;28;20032;-60
2022/08/01 03:22:13;;;;;;;3.75;1.65;;;;;;;;;;5032866;28;20116;-60
2022/08/01 03:24:42;;;;;;;6.32;2.47;;;;;;;;;;5031971;28;20025;-60
2022/08/01 03:27:18;;;;;;;3.92;1.90;;;;;;;;;;5034712;28;20112;-59
2022/08/01 03:35:53;;;;;;;3.55;1.67;;;;;;;;;;5034008;28;20036;-60
2022/08/01 03:38:30;;;;;;;3.05;1.85;;;;;;;;;;5032502;28;20052;-60
2022/08/01 03:41:02;;;;;;;3.45;2.00;;;;;;;;;;5033301;28;20068;-60
2022/08/01 03:43:44;;;;;;;5.00;2.40;;;;;;;;;;5033772;28;20033;-60
2022/08/01 03:46:24;;;;;;;3.92;2.20;;;;;;;;;;5032570;28;20022;-60
2022/08/01 03:48:55;;;;;;;3.20;2.22;;;;;;;;;;5033941;28;20034;-60
2022/08/01 03:51:34;;;;;;;3.38;1.83;;;;;;;;;;5033212;28;20026;-60
2022/08/01 03:54:09;;;;;;;2.92;1.65;;;;;;;;;;5031432;28;20021;-60
2022/08/01 03:59:51;;;;;;;7.25;1.75;;;;;;;;;;5047511;28;20056;-60
2022/08/01 04:02:26;;;;;;;2.25;1.75;;;;;;;;;;5052214;28;20120;-60
2022/08/01 04:04:55;;;;;;;2.47;1.73;;;;;;;;;;5051219;28;20021;-60
2022/08/01 04:07:42;;;;;;;2.67;2.08;;;;;;;;;;5049674;28;20462;-59
2022/08/01 04:10:21;;;;;;;4.00;2.13;;;;;;;;;;5041613;28;20639;-60
2022/08/01 04:12:48;;;;;;;3.83;2.10;;;;;;;;;;5035897;28;20080;-60
2022/08/01 04:15:14;;;;;;;3.95;1.95;;;;;;;;;;5053574;28;20071;-60
2022/08/01 04:17:55;;;;;;;3.83;2.03;;;;;;;;;;5049872;28;20090;-60
2022/08/01 04:20:23;;;;;;;3.75;1.92;;;;;;;;;;5032477;28;20449;-59
2022/08/01 04:23:01;;;;;;;4.05;1.95;;;;;;;;;;5032040;28;20044;-60
2022/08/01 04:25:39;;;;;;;2.70;1.92;;;;;;;;;;5043109;28;20029;-60
2022/08/01 04:28:10;;;;;;;4.40;1.55;;;;;;;;;;5045721;28;20036;-59
2022/08/01 04:33:56;;;;;;;3.10;1.88;;;;;;;;;;5053622;28;20124;-60
2022/08/01 04:36:37;;;;;;;3.15;2.00;;;;;;;;;;5051721;28;20463;-60
2022/08/01 04:39:09;;;;;;;2.42;1.30;;;;;;;;;;5036222;28;20407;-60
2022/08/01 04:41:42;;;;;;;2.47;1.65;;;;;;;;;;5050247;28;20486;-60
2022/08/01 04:44:09;;;;;;;2.28;1.40;;;;;;;;;;5053258;28;20025;-60
2022/08/01 04:46:41;;;;;;;3.33;1.73;;;;;;;;;;5054237;28;20033;-60
2022/08/01 04:49:24;;;;;;;3.70;2.08;;;;;;;;;;5052606;28;20222;-60
2022/08/01 04:52:03;;;;;;;2.50;1.88;;;;;;;;;;5045670;28;20320;-60
2022/08/01 04:54:49;;;;;;;;;;;;;;;;;;;;;
2022/08/01 04:57:31;;;;;;;4.53;1.77;;;;;;;;;;5045212;28;20124;-60
2022/08/01 05:00:06;;;;;;;3.58;1.80;;;;;;;;;;5034151;28;20021;-60
2022/08/01 05:02:44;;;;;;;2.65;1.60;;;;;;;;;;5047795;28;20425;-60
2022/08/01 05:05:22;;;;;;;2.35;1.40;;;;;;;;;;5035556;28;20116;-60
2022/08/01 05:07:57;;;;;;;6.05;1.63;;;;;;;;;;5052004;28;20029;-60
2022/08/01 05:10:38;;;;;;;2.70;1.60;;;;;;;;;;5051822;28;20078;-60
2022/08/01 05:13:20;;;;;;;3.30;1.90;;;;;;;;;;5046482;28;20144;-60
2022/08/01 05:16:10;;;;;;;3.90;1.67;;;;;;;;;;5052978;28;20024;-60
2022/08/01 05:18:55;;;;;;;3.47;1.58;;;;;;;;;;5036816;28;20041;-60
2022/08/01 05:21:37;;;;;;;2.67;1.63;;;;;;;;;;5047901;28;20127;-59
2022/08/01 05:24:10;;;;;;;2.38;1.40;;;;;;;;;;5033714;28;20052;-59
2022/08/01 05:27:07;;;;;;;2.83;2.03;;;;;;;;;;5051569;28;20032;-59
2022/08/01 05:29:34;;;;;;;2.83;1.50;;;;;;;;;;5053616;28;20162;-59
2022/08/01 05:32:09;;;;;;;3.40;1.30;;;;;;;;;;5050859;28;20028;-59
2022/08/01 05:34:47;;;;;;;2.95;1.27;;;;;;;;;;5053851;28;20470;-59
2022/08/01 05:37:23;;;;;;;7.68;1.70;;;;;;;;;;5051436;28;20111;-59
2022/08/01 05:39:52;;;;;;;2.03;1.20;;;;;;;;;;5052554;28;20044;-59
2022/08/01 05:42:31;;;;;;;6.00;1.25;;;;;;;;;;5052466;28;20033;-59
2022/08/01 05:44:58;;;;;;;2.30;1.30;;;;;;;;;;5053150;28;20029;-59
2022/08/01 05:47:34;;;;;;;2.15;1.50;;;;;;;;;;5050369;28;20029;-59
2022/08/01 05:50:27;;;;;;;2.63;1.70;;;;;;;;;;5044116;28;20108;-59
2022/08/01 05:52:52;;;;;;;4.32;1.58;;;;;;;;;;5049670;28;20094;-59
2022/08/01 05:55:38;;;;;;;5.07;1.38;;;;;;;;;;5048887;28;20024;-59
2022/08/01 05:58:05;;;;;;;3.47;2.20;;;;;;;;;;5033081;28;20044;-59
2022/08/01 06:00:34;;;;;;;2.22;1.45;;;;;;;;;;5032262;28;20029;-59
2022/08/01 06:03:14;;;;;;;3.15;1.40;;;;;;;;;;5049471;28;20060;-59
2022/08/01 06:06:08;;;;;;;3.92;2.10;;;;;;;;;;5052423;28;20340;-59
2022/08/01 06:08:33;;;;;;;6.32;1.45;;;;;;;;;;5049014;28;20029;-59
2022/08/01 06:11:20;;;;;;;2.20;1.40;;;;;;;;;;5051982;28;20075;-59
2022/08/01 06:14:02;;;;;;;3.03;1.73;;;;;;;;;;5051849;28;20060;-59
2022/08/01 06:16:35;;;;;;;2.88;1.40;;;;;;;;;;5052527;28;20471;-59
2022/08/01 06:19:13;;;;;;;1.65;0.93;;;;;;;;;;5052872;28;20033;-59
2022/08/01 06:21:43;;;;;;;1.48;0.93;;;;;;;;;;5041345;28;20029;-59
2022/08/01 06:24:28;;;;;;;2.45;1.45;;;;;;;;;;5045919;28;20080;-59
2022/08/01 06:26:55;;;;;;;2.33;1.13;;;;;;;;;;5043014;28;20029;-59
2022/08/01 06:29:34;;;;;;;1.85;0.88;;;;;;;;;;5051999;28;20033;-59
2022/08/01 06:32:10;;;;;;;2.55;1.30;;;;;;;;;;5039799;28;20040;-59
2022/08/01 06:34:57;;;;;;;3.75;1.50;;;;;;;;;;5049106;28;20036;-59
2022/08/01 06:37:48;;;;;;;2.15;1.10;;;;;;;;;;5051773;28;20391;-59
2022/08/01 06:40:20;;;;;;;1.52;0.85;;;;;;;;;;5051539;28;20375;-59
2022/08/01 06:43:03;;;;;;;1.75;1.08;;;;;;;;;;5051411;28;20033;-59
2022/08/01 06:45:30;;;;;;;1.88;0.73;;;;;;;;;;5050825;28;20068;-59
2022/08/01 06:48:17;;;;;;;2.28;1.23;;;;;;;;;;5050116;28;20067;-59
2022/08/01 06:50:46;;;;;;;2.92;1.35;;;;;;;;;;5048719;28;20029;-59
2022/08/01 06:53:16;;;;;;;4.22;1.00;;;;;;;;;;5039278;28;20029;-59
2022/08/01 06:56:05;;;;;;;2.60;1.25;;;;;;;;;;5049632;28;20471;-59
2022/08/01 06:58:45;;;;;;;1.58;0.88;;;;;;;;;;5047160;28;20025;-59
2022/08/01 07:01:30;;;;;;;1.80;0.90;;;;;;;;;;5052337;28;20036;-59
2022/08/01 07:04:07;;;;;;;;;;;;;;;;;;;;;
2022/08/01 07:09:42;;;;;;;2.47;1.55;;;;;;;;;;5040194;28;20038;-59
2022/08/01 07:12:11;;;;;;;1.75;0.98;;;;;;;;;;5043833;28;20044;-59
2022/08/01 07:14:41;;;;;;;1.77;1.00;;;;;;;;;;5042275;28;20075;-60
2022/08/01 07:17:10;;;;;;;3.38;1.20;;;;;;;;;;5049038;28;20543;-59
2022/08/01 07:19:49;;;;;;;2.33;1.20;;;;;;;;;;5040798;28;20060;-59
2022/08/01 07:22:24;;;;;;;2.38;1.20;;;;;;;;;;5046809;28;20471;-59
2022/08/01 07:25:01;;;;;;;1.83;1.10;;;;;;;;;;5047082;28;20025;-59
2022/08/01 07:30:20;;;;;;;1.83;1.13;;;;;;;;;;5047213;28;20035;-59
2022/08/01 07:32:52;;;;;;;1.60;1.13;;;;;;;;;;5051469;28;20041;-59
2022/08/01 07:35:21;;;;;;;1.40;0.77;;;;;;;;;;5046743;28;20060;-59
2022/08/01 07:37:53;;;;;;;2.88;1.27;;;;;;;;;;5043168;28;20070;-59
2022/08/01 07:40:41;;;;;;;6.43;1.08;;;;;;;;;;5048277;28;20033;-59
2022/08/01 07:43:16;;;;;;;2.40;1.33;;;;;;;;;;5050304;28;20509;-59
2022/08/01 07:46:00;;;;;;;1.90;1.30;;;;;;;;;;5047565;28;20060;-59
2022/08/01 07:48:27;;;;;;;2.97;1.10;;;;;;;;;;5054349;28;20386;-59
2022/08/01 07:51:10;;;;;;;;;;;;;;;;;;;;;
2022/08/01 07:53:36;;;;;;;2.60;1.00;;;;;;;;;;5053047;28;20037;-59
2022/08/01 07:56:04;;;;;;;2.83;1.48;;;;;;;;;;5053945;28;20478;-59
2022/08/01 07:58:39;;;;;;;1.88;1.05;;;;;;;;;;5053152;28;20037;-59
2022/08/01 08:01:37;;;;;;;2.80;1.45;;;;;;;;;;5051793;28;20129;-59
2022/08/01 08:04:23;;;;;;;2.08;1.40;;;;;;;;;;5053961;28;20028;-59
2022/08/01 08:07:06;;;;;;;2.65;1.48;;;;;;;;;;5048849;28;20030;-59
2022/08/01 08:09:33;;;;;;;1.98;1.27;;;;;;;;;;5051548;28;20158;-59
2022/08/01 08:12:14;;;;;;;2.38;1.77;;;;;;;;;;5046547;28;20040;-59
2022/08/01 08:14:44;;;;;;;2.30;1.35;;;;;;;;;;5036989;28;20029;-59
2022/08/01 08:17:23;;;;;;;2.42;1.27;;;;;;;;;;5048462;28;20103;-59
2022/08/01 08:19:56;;;;;;;2.28;1.40;;;;;;;;;;5038823;28;20022;-59
2022/08/01 08:22:29;;;;;;;3.45;1.77;;;;;;;;;;5033718;28;20060;-59
2022/08/01 08:25:02;;;;;;;2.15;1.40;;;;;;;;;;5052965;28;20025;-59
2022/08/01 08:27:31;;;;;;;1.90;1.30;;;;;;;;;;5050448;28;20074;-59
2022/08/01 08:29:58;;;;;;;1.95;1.02;;;;;;;;;;5044465;28;20059;-59
2022/08/01 08:32:27;;;;;;;2.72;1.40;;;;;;;;;;5050272;28;20029;-59
2022/08/01 08:35:02;;;;;;;2.45;1.35;;;;;;;;;;5047026;28;20029;-59
2022/08/01 08:37:33;;;;;;;3.38;2.33;;;;;;;;;;5033087;28;20395;-59
2022/08/01 08:40:03;;;;;;;2.30;1.55;;;;;;;;;;5045535;28;20030;-59
2022/08/01 08:42:43;;;;;;;2.78;1.77;;;;;;;;;;5039854;28;20041;-59
2022/08/01 08:45:17;;;;;;;2.88;2.28;;;;;;;;;;5046453;28;20048;-59
2022/08/01 08:47:50;;;;;;;3.42;1.98;;;;;;;;;;5051555;28;20029;-59
2022/08/01 08:50:23;;;;;;;4.40;2.42;;;;;;;;;;5033959;28;20475;-59
2022/08/01 08:52:56;;;;;;;3.28;2.20;;;;;;;;;;5018432;28;20057;-59
2022/08/01 08:55:30;;;;;;;3.03;2.33;;;;;;;;;;5047595;28;20021;-60
2022/08/01 08:58:02;;;;;;;2.78;1.60;;;;;;;;;;5032516;28;20026;-59
2022/08/01 09:00:31;;;;;;;5.22;2.28;;;;;;;;;;5030514;28;20034;-59
2022/08/01 09:03:02;;;;;;;3.33;1.77;;;;;;;;;;5031406;28;20034;-59
2022/08/01 09:05:47;;;;;;;2.65;1.73;;;;;;;;;;5051229;28;20021;-59
2022/08/01 09:08:13;;;;;;;2.70;1.90;;;;;;;;;;5030970;28;20025;-59
2022/08/01 09:10:49;;;;;;;;;;;;;;;;;;;;;
2022/08/01 09:13:36;;;;;;;2.92;1.70;;;;;;;;;;5032462;28;20398;-59
2022/08/01 09:16:19;;;;;;;2.72;1.95;;;;;;;;;;5032471;28;20025;-60
2022/08/01 09:18:50;;;;;;;3.25;1.95;;;;;;;;;;5034887;28;20430;-59
2022/08/01 09:21:19;;;;;;;2.80;1.83;;;;;;;;;;5051093;28;20116;-59
2022/08/01 09:23:52;;;;;;;2.25;1.45;;;;;;;;;;5052040;28;20091;-59
2022/08/01 09:26:23;;;;;;;4.57;2.28;;;;;;;;;;5051184;28;20063;-59
2022/08/01 09:28:54;;;;;;;3.33;1.88;;;;;;;;;;5052506;28;20021;-59
2022/08/01 09:31:29;;;;;;;2.75;2.08;;;;;;;;;;5051215;28;20127;-59
2022/08/01 09:34:11;;;;;;;3.83;2.13;;;;;;;;;;5051028;28;20095;-59
2022/08/01 09:36:55;;;;;;;6.05;2.47;;;;;;;;;;5049549;28;20032;-59
2022/08/01 09:39:39;;;;;;;6.53;2.55;;;;;;;;;;5050528;28;20124;-59
2022/08/01 09:42:24;;;;;;;8.05;2.65;;;;;;;;;;5045996;28;20083;-59
2022/08/01 09:44:55;;;;;;;2.97;2.22;;;;;;;;;;5042048;28;20033;-59
2022/08/01 09:47:27;;;;;;;3.25;2.60;;;;;;;;;;5051965;28;20415;-59
2022/08/01 09:49:54;;;;;;;3.95;2.60;;;;;;;;;;5051142;28;20075;-59
2022/08/01 09:52:38;;;;;;;4.03;2.78;;;;;;;;;;5051730;28;20041;-59
2022/08/01 09:55:07;;;;;;;5.18;3.47;;;;;;;;;;5052305;28;20106;-60
2022/08/01 09:57:37;;;;;;;4.80;3.63;;;;;;;;;;5041604;28;20080;-59
2022/08/01 10:00:04;;;;;;;5.93;4.25;;;;;;;;;;5043000;28;20040;-59
2022/08/01 10:02:38;;;;;;;8.38;4.70;;;;;;;;;;5048616;28;20133;-59
2022/08/01 10:05:09;;;;;;;5.47;4.03;;;;;;;;;;5047309;28;20029;-59
2022/08/01 10:08:01;;;;;;;3.92;3.30;;;;;;;;;;5030442;28;20443;-59
2022/08/01 10:10:50;;;;;;;4.85;3.58;;;;;;;;;;5041654;28;20029;-60
2022/08/01 10:13:22;;;;;;;4.68;3.72;;;;;;;;;;5032997;28;20040;-60
2022/08/01 10:15:58;;;;;;;8.25;3.67;;;;;;;;;;5049979;28;20048;-59
2022/08/01 10:18:29;;;;;;;4.97;2.97;;;;;;;;;;5050303;28;20028;-59
2022/08/01 10:20:59;;;;;;;4.25;3.55;;;;;;;;;;5050853;28;20040;-59
2022/08/01 10:23:29;;;;;;;4.43;3.50;;;;;;;;;;5051645;28;20063;-59
2022/08/01 10:26:03;;;;;;;4.80;3.42;;;;;;;;;;5050175;28;20108;-59
2022/08/01 10:28:36;;;;;;;5.05;3.30;;;;;;;;;;5051031;28;20021;-59
2022/08/01 10:31:12;;;;;;;4.60;3.28;;;;;;;;;;5049308;28;20433;-59
2022/08/01 10:33:41;;;;;;;5.85;3.72;;;;;;;;;;5051526;28;20029;-59
2022/08/01 10:36:13;;;;;;;5.10;3.72;;;;;;;;;;5055081;28;20021;-59
2022/08/01 10:38:42;;;;;;;3.65;2.90;;;;;;;;;;5053782;28;20025;-59
2022/08/01 10:41:16;;;;;;;4.28;3.72;;;;;;;;;;5049513;28;20048;-59
2022/08/01 10:44:02;;;;;;;3.92;3.05;;;;;;;;;;5037228;28;20055;-59
2022/08/01 10:46:31;;;;;;;9.00;3.92;;;;;;;;;;5055120;28;20021;-59
2022/08/01 10:49:01;;;;;;;3.88;2.72;;;;;;;;;;5050009;28;20443;-59
2022/08/01 10:51:28;;;;;;;6.85;3.38;;;;;;;;;;5052482;28;20033;-59
2022/08/01 10:53:55;;;;;;;3.70;2.50;;;;;;;;;;5054824;28;20032;-59
2022/08/01 10:56:28;;;;;;;4.53;2.35;;;;;;;;;;5051860;28;20537;-59
2022/08/01 10:59:07;;;;;;;3.88;3.20;;;;;;;;;;5034819;28;20032;-59
2022/08/01 11:01:36;;;;;;;4.85;2.88;;;;;;;;;;5033818;28;20523;-60
2022/08/01 11:04:05;;;;;;;2.77;2.20;;;;;;;;;;5033169;28;20041;-59
2022/08/01 11:06:50;;;;;;;3.35;2.30;;;;;;;;;;5043091;28;20327;-59
2022/08/01 11:09:23;;;;;;;2.90;2.08;;;;;;;;;;5039511;28;21400;-59
2022/08/01 11:12:09;;;;;;;3.55;2.42;;;;;;;;;;5052068;28;20120;-59
2022/08/01 11:14:58;;;;;;;3.28;2.33;;;;;;;;;;5051430;28;20116;-60
2022/08/01 11:17:35;;;;;;;3.70;2.22;;;;;;;;;;5054568;28;20024;-59
2022/08/01 11:20:15;;;;;;;3.05;2.50;;;;;;;;;;5051883;28;20025;-59
2022/08/01 11:23:04;;;;;;;3.28;2.40;;;;;;;;;;5032918;28;20033;-59
2022/08/01 11:25:45;;;;;;;3.25;2.17;;;;;;;;;;5040973;28;20029;-59
2022/08/01 11:28:25;;;;;;;4.28;2.97;;;;;;;;;;5049326;28;20036;-59
2022/08/01 11:31:17;;;;;;;3.60;2.70;;;;;;;;;;5039204;28;20033;-59
2022/08/01 11:33:46;;;;;;;3.00;2.50;;;;;;;;;;5036146;28;20355;-59
2022/08/01 11:36:12;;;;;;;2.78;2.38;;;;;;;;;;5033753;28;20487;-59
2022/08/01 11:38:51;;;;;;;3.00;2.03;;;;;;;;;;5035401;28;20060;-59
2022/08/01 11:41:25;;;;;;;2.83;2.47;;;;;;;;;;5046633;28;20033;-59
2022/08/01 11:44:13;;;;;;;3.13;2.15;;;;;;;;;;5051814;28;20725;-59
2022/08/01 11:47:03;;;;;;;2.92;2.15;;;;;;;;;;5052597;28;20025;-59
2022/08/01 11:49:45;;;;;;;3.50;2.05;;;;;;;;;;5041451;28;20034;-60
2022/08/01 11:52:26;;;;;;;3.72;2.35;;;;;;;;;;5033028;28;20525;-60
2022/08/01 11:54:58;;;;;;;2.70;1.85;;;;;;;;;;5036931;28;20074;-60
2022/08/01 11:57:34;;;;;;;8.15;2.70;;;;;;;;;;5052166;28;20032;-60
2022/08/01 12:00:06;;;;;;;2.85;1.95;;;;;;;;;;5050206;28;20047;-60
2022/08/01 12:02:36;;;;;;;3.08;2.08;;;;;;;;;;5052781;28;20033;-59
2022/08/01 12:05:05;;;;;;;3.25;2.53;;;;;;;;;;5053547;28;20032;-59
2022/08/01 12:07:36;;;;;;;2.63;2.00;;;;;;;;;;5041297;28;20025;-59
2022/08/01 12:10:06;;;;;;;4.05;1.75;;;;;;;;;;5038746;28;20030;-59
2022/08/01 12:12:38;;;;;;;2.58;1.75;;;;;;;;;;5042243;28;20025;-59
2022/08/01 12:15:06;;;;;;;3.78;1.80;;;;;;;;;;5043126;28;20065;-59
2022/08/01 12:17:41;;;;;;;3.75;1.63;;;;;;;;;;5051310;28;20078;-59
2022/08/01 12:20:09;;;;;;;3.67;2.30;;;;;;;;;;5043002;28;20034;-58
2022/08/01 12:22:43;;;;;;;3.88;2.35;;;;;;;;;;5033082;28;20406;-59
2022/08/01 12:25:19;;;;;;;2.72;1.67;;;;;;;;;;5050638;28;20425;-59
2022/08/01 12:27:53;;;;;;;2.47;1.55;;;;;;;;;;5053324;28;20086;-59
2022/08/01 12:30:28;;;;;;;3.00;1.85;;;;;;;;;;5052358;28;20374;-59
2022/08/01 12:32:54;;;;;;;4.30;2.33;;;;;;;;;;5051755;28;20033;-59
2022/08/01 12:35:28;;;;;;;2.58;1.80;;;;;;;;;;5051759;28;20104;-59
2022/08/01 12:37:55;;;;;;;3.42;2.10;;;;;;;;;;5043110;28;20736;-59
2022/08/01 12:40:29;;;;;;;3.38;1.92;;;;;;;;;;5047308;28;20506;-59
2022/08/01 12:42:56;;;;;;;2.38;1.48;;;;;;;;;;5038131;28;20035;-59
2022/08/01 12:45:31;;;;;;;2.65;1.45;;;;;;;;;;5050691;28;20029;-59
2022/08/01 12:48:14;;;;;;;5.63;2.45;;;;;;;;;;5044618;28;20021;-59
2022/08/01 12:50:47;;;;;;;3.25;1.70;;;;;;;;;;5051986;28;20017;-59
2022/08/01 12:53:20;;;;;;;2.92;2.25;;;;;;;;;;5053018;28;20051;-59
2022/08/01 12:55:50;;;;;;;7.05;2.88;;;;;;;;;;5052222;28;20486;-59
2022/08/01 12:58:20;;;;;;;2.55;1.52;;;;;;;;;;5047005;28;20078;-59
2022/08/01 13:01:12;;;;;;;4.75;2.15;;;;;;;;;;5051158;28;20040;-59
2022/08/01 13:03:47;;;;;;;3.45;2.28;;;;;;;;;;5052440;28;20104;-59
2022/08/01 13:06:16;;;;;;;2.88;1.98;;;;;;;;;;5052400;28;20375;-59
2022/08/01 13:08:45;;;;;;;3.92;1.92;;;;;;;;;;5050934;28;20020;-59
2022/08/01 13:11:19;;;;;;;2.47;1.88;;;;;;;;;;5049317;28;20041;-59
2022/08/01 13:13:53;;;;;;;2.47;1.58;;;;;;;;;;5050818;28;20438;-59
2022/08/01 13:16:47;;;;;;;2.58;1.50;;;;;;;;;;5050790;28;20390;-59
2022/08/01 13:19:14;;;;;;;3.42;2.20;;;;;;;;;;5050606;28;20136;-59
2022/08/01 13:21:55;;;;;;;4.07;1.80;;;;;;;;;;5051168;28;20037;-59
2022/08/01 13:24:31;;;;;;;2.10;1.40;;;;;;;;;;5050919;28;20078;-59
2022/08/01 13:27:02;;;;;;;2.65;2.10;;;;;;;;;;5047928;28;20428;-59
2022/08/01 13:29:31;;;;;;;4.57;1.50;;;;;;;;;;5051423;28;20167;-59
2022/08/01 13:31:57;;;;;;;2.42;1.80;;;;;;;;;;5050909;28;20120;-58
2022/08/01 13:34:43;;;;;;;2.72;1.65;;;;;;;;;;5050460;28;20036;-59
2022/08/01 13:37:10;;;;;;;4.20;1.70;;;;;;;;;;5042528;28;20448;-59
2022/08/01 13:42:31;;;;;;;2.70;1.45;;;;;;;;;;5050514;28;20036;-59
2022/08/01 13:45:12;;;;;;;3.28;1.70;;;;;;;;;;5051864;28;20029;-59
2022/08/01 13:47:44;;;;;;;2.75;1.73;;;;;;;;;;5051901;28;20074;-59
2022/08/01 13:50:15;;;;;;;2.35;1.50;;;;;;;;;;5048620;28;20075;-59
2022/08/01 13:52:44;;;;;;;2.45;1.58;;;;;;;;;;5042372;28;20391;-59
2022/08/01 13:55:13;;;;;;;2.80;1.90;;;;;;;;;;5051434;28;20025;-58
2022/08/01 13:57:39;;;;;;;2.05;1.30;;;;;;;;;;5050490;28;20021;-58
2022/08/01 14:00:09;;;;;;;2.38;1.58;;;;;;;;;;5049380;28;20040;-59
2022/08/01 14:02:36;;;;;;;3.17;1.35;;;;;;;;;;5050169;28;20528;-58
2022/08/01 14:05:05;;;;;;;2.22;1.60;;;;;;;;;;5051504;28;20043;-59
2022/08/01 14:07:34;;;;;;;2.73;1.70;;;;;;;;;;5048103;28;20047;-59
2022/08/01 14:10:02;;;;;;;3.17;2.08;;;;;;;;;;5052948;28;20260;-59
2022/08/01 14:12:31;;;;;;;4.47;1.40;;;;;;;;;;5055294;28;20049;-58
2022/08/01 14:15:04;;;;;;;3.78;1.30;;;;;;;;;;5054137;28;20033;-58
2022/08/01 14:17:34;;;;;;;1.80;1.20;;;;;;;;;;5053919;28;20048;-59
2022/08/01 14:20:11;;;;;;;4.00;2.20;;;;;;;;;;5051211;28;20103;-58
2022/08/01 14:22:44;;;;;;;2.45;1.33;;;;;;;;;;5055564;28;20017;-59
2022/08/01 14:25:20;;;;;;;4.07;1.48;;;;;;;;;;5054189;28;20021;-58
2022/08/01 14:27:55;;;;;;;2.15;1.40;;;;;;;;;;5054165;28;20047;-58
2022/08/01 14:30:21;;;;;;;2.00;1.20;;;;;;;;;;5054351;28;20471;-58
2022/08/01 14:32:48;;;;;;;2.65;1.48;;;;;;;;;;5055391;28;20040;-58
2022/08/01 14:35:14;;;;;;;3.67;1.48;;;;;;;;;;5050894;28;20036;-58
2022/08/01 14:37:40;;;;;;;2.33;1.48;;;;;;;;;;5051418;28;20025;-59
2022/08/01 14:40:10;;;;;;;8.23;1.92;;;;;;;;;;5054188;28;20146;-58
2022/08/01 14:42:43;;;;;;;1.95;1.38;;;;;;;;;;5048168;28;20043;-58
2022/08/01 14:45:16;;;;;;;2.83;1.70;;;;;;;;;;5036912;28;20099;-58
2022/08/01 14:47:43;;;;;;;2.05;1.38;;;;;;;;;;5041195;28;20057;-58
2022/08/01 14:50:10;;;;;;;2.25;1.30;;;;;;;;;;5031905;28;20036;-58
2022/08/01 14:52:37;;;;;;;2.38;1.67;;;;;;;;;;5041050;28;20029;-58
2022/08/01 14:55:04;;;;;;;3.95;1.92;;;;;;;;;;5052588;28;20056;-58
2022/08/01 14:57:33;;;;;;;2.28;1.38;;;;;;;;;;5050235;28;20053;-58
2022/08/01 14:59:59;;;;;;;4.88;1.83;;;;;;;;;;5041391;28;20383;-58
2022/08/01 15:02:25;;;;;;;3.55;2.47;;;;;;;;;;5045207;28;20036;-58
2022/08/01 15:04:56;;;;;;;2.92;1.80;;;;;;;;;;5049198;28;20642;-58
2022/08/01 15:07:22;;;;;;;3.33;1.70;;;;;;;;;;5053045;28;20082;-58
2022/08/01 15:09:48;;;;;;;2.55;1.77;;;;;;;;;;5035472;28;20119;-58
2022/08/01 15:12:14;;;;;;;2.33;1.30;;;;;;;;;;5052774;28;20044;-58
2022/08/01 15:14:52;;;;;;;3.10;1.63;;;;;;;;;;5053179;28;20475;-58
2022/08/01 15:17:20;;;;;;;4.20;1.98;;;;;;;;;;5051665;28;20083;-58
2022/08/01 15:19:47;;;;;;;2.42;1.63;;;;;;;;;;5053582;28;20024;-58
2022/08/01 15:22:13;;;;;;;2.58;1.38;;;;;;;;;;5043027;28;20394;-58
2022/08/01 15:24:39;;;;;;;3.67;2.00;;;;;;;;;;5038415;28;20025;-58
2022/08/01 15:27:06;;;;;;;2.85;1.67;;;;;;;;;;5046507;28;20033;-58
2022/08/01 15:29:32;;;;;;;5.15;1.13;;;;;;;;;;5040652;28;20033;-58
2022/08/01 15:32:01;;;;;;;2.53;1.50;;;;;;;;;;5047142;28;20029;-58
2022/08/01 15:34:27;;;;;;;3.25;1.30;;;;;;;;;;5047054;28;20497;-58
2022/08/01 15:36:54;;;;;;;2.75;1.80;;;;;;;;;;5044657;28;20029;-58
2022/08/01 15:39:20;;;;;;;2.50;1.45;;;;;;;;;;5046656;28;20417;-58
2022/08/01 15:41:48;;;;;;;2.95;1.60;;;;;;;;;;5042195;28;20029;-58
2022/08/01 15:44:15;;;;;;;2.60;1.60;;;;;;;;;;5028553;28;20380;-58
2022/08/01 15:46:43;;;;;;;2.58;1.48;;;;;;;;;;5049410;28;20130;-59
2022/08/01 15:49:10;;;;;;;2.00;1.20;;;;;;;;;;5047011;28;20130;-59
2022/08/01 15:51:36;;;;;;;2.17;1.38;;;;;;;;;;5040908;28;20037;-58
2022/08/01 15:54:02;;;;;;;2.80;1.67;;;;;;;;;;5047590;28;20090;-58
2022/08/01 15:56:32;;;;;;;2.40;1.50;;;;;;;;;;5045710;28;20025;-59
2022/08/01 15:58:58;;;;;;;2.55;1.17;;;;;;;;;;5049277;28;20033;-58
2022/08/01 16:01:27;;;;;;;2.78;1.13;;;;;;;;;;5042207;28;20029;-58
2022/08/01 16:03:54;;;;;;;1.95;1.08;;;;;;;;;;5042445;28;20090;-58
2022/08/01 16:06:22;;;;;;;2.45;1.50;;;;;;;;;;5045755;28;20087;-58
2022/08/01 16:08:48;;;;;;;3.28;1.52;;;;;;;;;;5039178;28;20025;-59
2022/08/01 16:11:22;;;;;;;2.50;1.45;;;;;;;;;;5038496;28;20049;-58